createdAt,value
2023-03-24T12:07:49.883Z,86947.19
2023-03-24T12:10:27.656Z,86935.44
2023-03-24T12:13:15.604Z,86935.72
2023-03-24T12:16:35.966Z,86934.19
2023-03-24T12:19:39.336Z,86931.75
2023-03-24T12:22:28.290Z,86931.31
2023-03-24T12:25:23.194Z,86923.69
2023-03-24T12:28:08.900Z,86915.38
2023-03-24T12:31:03.215Z,86909.31
2023-03-24T12:33:44.622Z,86905.63
2023-03-24T12:36:39.018Z,86901.06
2023-03-24T12:39:20.687Z,86899.47
2023-03-24T12:42:33.986Z,86899.75
2023-03-24T12:46:15.844Z,86894.34
2023-03-24T12:48:54.861Z,86884.91
2023-03-24T12:51:52.499Z,86875.34
2023-03-24T12:54:40.587Z,86861.31
2023-03-24T12:57:18.146Z,86859.28
2023-03-24T12:59:57.747Z,86855.31
2023-03-24T13:02:35.372Z,86853.00
2023-03-24T13:05:21.447Z,86858.63
2023-03-24T13:07:54.585Z,86854.75
2023-03-24T13:10:33.972Z,86860.22
2023-03-24T13:13:04.406Z,86852.91
2023-03-24T13:15:40.217Z,86850.91
2023-03-24T13:18:24.819Z,86847.13
2023-03-24T13:21:04.690Z,86853.41
2023-03-24T13:23:39.121Z,86838.97
2023-03-24T13:26:24.431Z,86841.72
2023-03-24T13:29:12.271Z,86846.59
2023-03-24T13:31:58.708Z,86836.75
2023-03-24T13:34:38.979Z,86841.25
2023-03-24T13:37:19.692Z,86838.97
2023-03-24T13:39:47.466Z,86828.75
2023-03-24T13:42:35.581Z,86824.28
2023-03-24T13:45:07.449Z,86813.44
2023-03-24T13:48:04.337Z,86814.53
2023-03-24T13:50:50.789Z,86817.44
2023-03-24T13:53:18.385Z,86828.25
2023-03-24T13:55:52.228Z,86824.81
2023-03-24T13:58:26.732Z,86832.75
2023-03-24T14:01:11.761Z,86838.47
2023-03-24T14:04:07.327Z,86836.28
2023-03-24T14:06:58.640Z,86830.09
2023-03-24T14:09:29.792Z,86828.31
2023-03-24T14:12:02.898Z,86818.50
2023-03-24T14:14:35.933Z,86814.53
2023-03-24T14:17:08.721Z,86819.50
2023-03-24T14:19:43.684Z,86819.50
2023-03-24T14:22:10.804Z,86826.63
2023-03-24T14:24:40.837Z,86824.69
2023-03-24T14:27:38.240Z,86830.94
2023-03-24T14:30:29.432Z,86823.16
2023-03-24T14:33:01.949Z,86818.69
2023-03-24T14:35:40.658Z,86817.59
2023-03-24T14:38:16.865Z,86812.09
2023-03-24T14:40:52.463Z,86816.28
2023-03-24T14:43:28.281Z,86799.63
2023-03-24T14:46:05.392Z,86808.03
2023-03-24T14:49:16.233Z,86801.28
2023-03-24T14:52:40.312Z,86787.44
2023-03-24T14:55:13.983Z,86788.63
2023-03-24T14:57:45.446Z,86788.22
2023-03-24T15:00:22.641Z,86794.28
2023-03-24T15:03:01.774Z,86790.81
2023-03-24T15:05:29.427Z,86796.06
2023-03-24T15:08:10.773Z,86792.31
2023-03-24T15:10:44.001Z,86791.84
2023-03-24T15:13:59.968Z,86791.97
2023-03-24T15:16:33.601Z,86785.78
2023-03-24T15:19:20.193Z,86785.06
2023-03-24T15:21:50.901Z,86784.25
2023-03-24T15:24:30.489Z,86774.47
2023-03-24T15:27:06.936Z,86767.47
2023-03-24T15:29:41.367Z,86764.41
2023-03-24T15:32:20.258Z,86762.47
2023-03-24T15:34:55.040Z,86762.81
2023-03-24T15:37:41.074Z,86757.97
2023-03-24T15:40:28.709Z,86757.78
2023-03-24T15:43:03.352Z,86761.47
2023-03-24T15:45:36.613Z,86759.56
2023-03-24T15:48:21.737Z,86761.50
2023-03-24T15:50:56.701Z,86756.63
2023-03-24T15:53:33.651Z,86759.34
2023-03-24T15:56:25.004Z,86759.44
2023-03-24T15:59:15.528Z,86761.41
2023-03-24T16:01:45.089Z,86763.69
2023-03-24T16:04:17.829Z,86761.75
2023-03-24T16:06:54.270Z,86758.75
2023-03-24T16:09:23.517Z,86749.41
2023-03-24T16:11:50.668Z,86764.59
2023-03-24T16:14:29.788Z,86769.59
2023-03-24T16:17:02.316Z,86780.69
2023-03-24T16:19:30.211Z,86786.03
2023-03-24T16:21:57.731Z,86773.28
2023-03-24T16:24:25.015Z,86782.25
2023-03-24T16:26:52.385Z,86775.34
2023-03-24T16:29:23.876Z,86776.09
2023-03-24T16:31:56.829Z,86781.91
2023-03-24T16:34:24.836Z,86782.25
2023-03-24T16:36:55.048Z,86780.81
2023-03-24T16:39:29.373Z,86783.88
2023-03-24T16:41:57.481Z,86783.47
2023-03-24T16:44:25.473Z,86785.75
2023-03-24T16:46:54.472Z,86782.88
2023-03-24T16:49:24.192Z,86791.97
2023-03-24T16:51:51.880Z,86788.69
2023-03-24T16:54:19.380Z,86774.78
2023-03-24T16:56:46.659Z,86783.84
2023-03-24T16:59:13.952Z,86778.19
2023-03-24T17:01:44.867Z,86789.56
2023-03-24T17:04:17.787Z,86780.44
2023-03-24T17:06:51.843Z,86774.44
2023-03-24T17:09:19.818Z,86768.47
2023-03-24T17:11:58.464Z,86781.34
2023-03-24T17:14:25.620Z,86784.34
2023-03-24T17:16:53.259Z,86787.59
2023-03-24T17:19:25.816Z,86783.75
2023-03-24T17:22:02.874Z,86786.03
2023-03-24T17:24:34.519Z,86781.53
2023-03-24T17:27:02.401Z,86779.25
2023-03-24T17:29:29.720Z,86776.56
2023-03-24T17:31:57.080Z,86786.03
2023-03-24T17:34:24.257Z,86790.56
2023-03-24T17:36:54.523Z,86785.31
2023-03-24T17:39:27.260Z,86781.44
2023-03-24T17:41:54.868Z,86784.66
2023-03-24T17:44:22.183Z,86788.50
2023-03-24T17:46:49.363Z,86800.50
2023-03-24T17:49:16.886Z,86797.84
2023-03-24T17:51:44.204Z,86804.34
2023-03-24T17:54:11.535Z,86791.19
2023-03-24T17:56:39.063Z,86793.94
2023-03-24T17:59:06.261Z,86793.59
2023-03-24T18:01:33.701Z,86786.72
2023-03-24T18:04:01.587Z,86795.47
2023-03-24T18:06:28.851Z,86790.53
2023-03-24T18:08:57.902Z,86799.97
2023-03-24T18:11:25.396Z,86798.22
2023-03-24T18:13:52.561Z,86796.00
2023-03-24T18:16:21.860Z,86810.28
2023-03-24T18:18:51.231Z,86802.72
2023-03-24T18:21:19.642Z,86809.47
2023-03-24T18:23:47.398Z,86798.59
2023-03-24T18:26:16.960Z,86808.03
2023-03-24T18:28:45.497Z,86813.66
2023-03-24T18:31:19.117Z,86804.63
2023-03-24T18:33:51.216Z,86807.59
2023-03-24T18:36:21.686Z,86809.53
2023-03-24T18:38:49.670Z,86795.66
2023-03-24T18:41:17.348Z,86806.50
2023-03-24T18:43:44.664Z,86799.31
2023-03-24T18:46:12.215Z,86802.72
2023-03-24T18:48:42.498Z,86808.13
2023-03-24T18:51:11.575Z,86803.91
2023-03-24T18:53:39.768Z,86795.66
2023-03-24T18:56:08.703Z,86803.22
2023-03-24T18:58:37.150Z,86793.75
2023-03-24T19:01:11.857Z,86793.72
2023-03-24T19:03:41.175Z,86788.84
2023-03-24T19:06:12.671Z,86791.88
2023-03-24T19:08:45.212Z,86793.47
2023-03-24T19:11:15.664Z,86789.63
2023-03-24T19:13:43.794Z,86782.41
2023-03-24T19:16:12.656Z,86789.97
2023-03-24T19:18:40.048Z,86787.03
2023-03-24T19:21:07.685Z,86798.28
2023-03-24T19:23:36.309Z,86797.94
2023-03-24T19:26:05.263Z,86789.63
2023-03-24T19:28:35.594Z,86798.34
2023-03-24T19:31:14.515Z,86787.38
2023-03-24T19:33:41.821Z,86790.78
2023-03-24T19:36:10.242Z,86792.25
2023-03-24T19:38:38.635Z,86782.06
2023-03-24T19:41:09.723Z,86773.84
2023-03-24T19:43:37.004Z,86773.84
2023-03-24T19:46:05.982Z,86770.03
2023-03-24T19:48:35.050Z,86772.66
2023-03-24T19:51:03.379Z,86767.06
2023-03-24T19:53:31.043Z,86761.00
2023-03-24T19:55:59.468Z,86758.44
2023-03-24T19:58:26.745Z,86768.97
2023-03-24T20:00:54.278Z,86761.13
2023-03-24T20:03:22.552Z,86755.81
2023-03-24T20:05:50.385Z,86764.50
2023-03-24T20:08:18.142Z,86763.38
2023-03-24T20:10:45.251Z,86758.47
2023-03-24T20:13:12.477Z,86753.91
2023-03-24T20:15:39.682Z,86758.50
2023-03-24T20:18:06.996Z,86749.53
2023-03-24T20:20:34.224Z,86752.19
2023-03-24T20:23:01.593Z,86742.72
2023-03-24T20:25:28.765Z,86743.47
2023-03-24T20:27:56.073Z,86733.25
2023-03-24T20:30:23.589Z,86741.53
2023-03-24T20:32:54.880Z,86735.53
2023-03-24T20:35:22.488Z,86744.22
2023-03-24T20:37:49.670Z,86735.53
2023-03-24T20:40:17.407Z,86733.34
2023-03-24T20:42:44.667Z,86733.34
2023-03-24T20:45:12.574Z,86723.97
2023-03-24T20:47:39.811Z,86726.28
2023-03-24T20:50:07.976Z,86721.03
2023-03-24T20:52:35.890Z,86715.00
2023-03-24T20:55:03.394Z,86705.56
2023-03-24T20:57:30.598Z,86707.03
2023-03-24T20:59:57.964Z,86701.06
2023-03-24T21:02:26.245Z,86701.91
2023-03-24T21:04:53.550Z,86705.66
2023-03-24T21:07:21.062Z,86713.16
2023-03-24T21:09:48.266Z,86707.94
2023-03-24T21:12:15.406Z,86718.88
2023-03-24T21:14:42.576Z,86711.38
2023-03-24T21:17:09.686Z,86715.91
2023-03-24T21:19:37.008Z,86726.41
2023-03-24T21:22:04.238Z,86741.09
2023-03-24T21:24:31.466Z,86747.84
2023-03-24T21:26:58.681Z,86746.72
2023-03-24T21:29:26.092Z,86763.63
2023-03-24T21:31:53.275Z,86766.22
2023-03-24T21:34:20.493Z,86756.78
2023-03-24T21:36:47.713Z,86753.75
2023-03-24T21:39:15.611Z,86751.06
2023-03-24T21:41:42.875Z,86747.69
2023-03-24T21:44:10.502Z,86751.84
2023-03-24T21:46:37.770Z,86762.41
2023-03-24T21:49:05.275Z,86762.06
2023-03-24T21:51:34.660Z,86759.81
2023-03-24T21:54:04.451Z,86769.59
2023-03-24T21:56:33.564Z,86774.88
2023-03-24T21:59:01.281Z,86774.88
2023-03-24T22:01:29.380Z,86788.41
2023-03-24T22:03:56.825Z,86783.19
2023-03-24T22:06:24.273Z,86780.19
2023-03-24T22:08:51.829Z,86783.56
2023-03-24T22:11:19.086Z,86779.03
2023-03-24T22:13:46.547Z,86783.56
2023-03-24T22:16:14.562Z,86781.69
2023-03-24T22:18:41.782Z,86765.09
2023-03-24T22:21:12.666Z,86765.09
2023-03-24T22:23:41.500Z,86755.31
2023-03-24T22:26:16.771Z,86757.19
2023-03-24T22:28:44.792Z,86753.47
2023-03-24T22:31:15.586Z,86752.34
2023-03-24T22:33:43.213Z,86752.72
2023-03-24T22:36:11.954Z,86750.88
2023-03-24T22:38:39.444Z,86751.25
2023-03-24T22:41:10.646Z,86746.00
2023-03-24T22:43:38.562Z,86750.53
2023-03-24T22:46:06.116Z,86757.66
2023-03-24T22:48:33.375Z,86756.56
2023-03-24T22:51:00.520Z,86754.69
2023-03-24T22:53:27.721Z,86750.19
2023-03-24T22:55:54.987Z,86746.44
2023-03-24T22:58:22.982Z,86759.25
2023-03-24T23:00:55.126Z,86766.41
2023-03-24T23:03:22.750Z,86770.19
2023-03-24T23:05:50.488Z,86752.50
2023-03-24T23:08:17.857Z,86761.16
2023-03-24T23:10:47.088Z,86756.28
2023-03-24T23:13:15.222Z,86760.41
2023-03-24T23:15:42.826Z,86740.50
2023-03-24T23:18:11.060Z,86725.81
2023-03-24T23:20:38.272Z,86720.56
2023-03-24T23:23:06.850Z,86732.63
2023-03-24T23:25:43.595Z,86740.53
2023-03-24T23:28:12.381Z,86740.53
2023-03-24T23:30:41.216Z,86737.91
2023-03-24T23:33:08.945Z,86742.41
2023-03-24T23:35:36.658Z,86742.81
2023-03-24T23:38:03.904Z,86744.31
2023-03-24T23:40:31.176Z,86748.09
2023-03-24T23:42:58.430Z,86740.59
2023-03-24T23:45:25.648Z,86740.59
2023-03-24T23:47:53.587Z,86747.38
2023-03-24T23:50:21.466Z,86739.09
2023-03-24T23:52:48.874Z,86742.50
2023-03-24T23:55:18.304Z,86736.84
2023-03-24T23:57:46.577Z,86727.44
